sensor_id;sensor_type;location;lat;lon;timestamp;temperature;humidity
41985;DHT22;28319;48.116;10.818;2023-11-21T00:00:35;7.10;99.90
41985;DHT22;28319;48.116;10.818;2023-11-21T00:05:37;7.10;99.90
41985;DHT22;28319;48.116;10.818;2023-11-21T00:10:39;7.10;99.90
41985;DHT22;28319;48.116;10.818;2023-11-21T00:15:42;7.20;99.90
41985;DHT22;28319;48.116;10.818;2023-11-21T00:20:44;7.10;99.90
41985;DHT22;28319;48.116;10.818;2023-11-21T00:25:47;7.10;99.90
41985;DHT22;28319;48.116;10.818;2023-11-21T00:30:50;7.10;99.90
41985;DHT22;28319;48.116;10.818;2023-11-21T00:35:52;7.10;99.90
41985;DHT22;28319;48.116;10.818;2023-11-21T00:40:54;6.90;99.90
41985;DHT22;28319;48.116;10.818;2023-11-21T00:45:58;7.00;99.90
41985;DHT22;28319;48.116;10.818;2023-11-21T00:51:00;7.00;99.90
41985;DHT22;28319;48.116;10.818;2023-11-21T00:56:02;7.00;99.90
41985;DHT22;28319;48.116;10.818;2023-11-21T01:01:06;7.00;99.90
41985;DHT22;28319;48.116;10.818;2023-11-21T01:06:08;7.10;99.90
41985;DHT22;28319;48.116;10.818;2023-11-21T01:11:12;7.10;99.90
41985;DHT22;28319;48.116;10.818;2023-11-21T01:16:16;7.20;99.90
41985;DHT22;28319;48.116;10.818;2023-11-21T01:21:18;7.10;99.90
41985;DHT22;28319;48.116;10.818;2023-11-21T01:26:21;7.00;99.90
41985;DHT22;28319;48.116;10.818;2023-11-21T01:31:24;7.00;99.90
41985;DHT22;28319;48.116;10.818;2023-11-21T01:36:33;7.00;99.90
41985;DHT22;28319;48.116;10.818;2023-11-21T01:41:36;6.90;99.90
41985;DHT22;28319;48.116;10.818;2023-11-21T01:46:39;6.90;99.90
41985;DHT22;28319;48.116;10.818;2023-11-21T01:51:43;6.90;99.90
41985;DHT22;28319;48.116;10.818;2023-11-21T01:56:46;6.90;99.90
41985;DHT22;28319;48.116;10.818;2023-11-21T02:01:51;6.80;99.90
41985;DHT22;28319;48.116;10.818;2023-11-21T02:06:54;6.80;99.90
41985;DHT22;28319;48.116;10.818;2023-11-21T02:11:56;6.90;99.90
41985;DHT22;28319;48.116;10.818;2023-11-21T02:17:01;6.80;99.90
41985;DHT22;28319;48.116;10.818;2023-11-21T02:22:04;6.80;99.90
41985;DHT22;28319;48.116;10.818;2023-11-21T02:27:08;6.80;99.90
41985;DHT22;28319;48.116;10.818;2023-11-21T02:32:10;6.80;99.90
41985;DHT22;28319;48.116;10.818;2023-11-21T02:37:13;6.80;99.90
41985;DHT22;28319;48.116;10.818;2023-11-21T02:42:16;6.80;99.90
41985;DHT22;28319;48.116;10.818;2023-11-21T02:47:19;6.80;99.90
41985;DHT22;28319;48.116;10.818;2023-11-21T02:52:21;6.80;99.90
41985;DHT22;28319;48.116;10.818;2023-11-21T02:57:24;6.80;99.90
41985;DHT22;28319;48.116;10.818;2023-11-21T03:02:26;6.80;99.90
41985;DHT22;28319;48.116;10.818;2023-11-21T03:07:28;6.80;99.90
41985;DHT22;28319;48.116;10.818;2023-11-21T03:12:32;6.80;99.90
41985;DHT22;28319;48.116;10.818;2023-11-21T03:17:34;6.80;99.90
41985;DHT22;28319;48.116;10.818;2023-11-21T03:22:36;6.80;99.90
41985;DHT22;28319;48.116;10.818;2023-11-21T03:27:40;6.80;99.90
41985;DHT22;28319;48.116;10.818;2023-11-21T03:32:42;6.80;99.90
41985;DHT22;28319;48.116;10.818;2023-11-21T03:37:44;6.80;99.90
41985;DHT22;28319;48.116;10.818;2023-11-21T03:42:47;6.80;99.90
41985;DHT22;28319;48.116;10.818;2023-11-21T03:47:50;6.80;99.90
41985;DHT22;28319;48.116;10.818;2023-11-21T03:52:52;6.70;99.90
41985;DHT22;28319;48.116;10.818;2023-11-21T03:57:55;6.70;99.90
41985;DHT22;28319;48.116;10.818;2023-11-21T04:02:57;6.60;99.90
41985;DHT22;28319;48.116;10.818;2023-11-21T04:07:59;6.60;99.90
41985;DHT22;28319;48.116;10.818;2023-11-21T04:13:03;6.70;99.90
41985;DHT22;28319;48.116;10.818;2023-11-21T04:18:05;6.60;99.90
41985;DHT22;28319;48.116;10.818;2023-11-21T04:23:07;6.60;99.90
41985;DHT22;28319;48.116;10.818;2023-11-21T04:28:12;6.50;99.90
41985;DHT22;28319;48.116;10.818;2023-11-21T04:33:14;6.50;99.90
41985;DHT22;28319;48.116;10.818;2023-11-21T04:38:16;6.40;99.90
41985;DHT22;28319;48.116;10.818;2023-11-21T04:43:21;6.40;99.90
41985;DHT22;28319;48.116;10.818;2023-11-21T04:48:22;6.40;99.90
41985;DHT22;28319;48.116;10.818;2023-11-21T04:53:24;6.40;99.90
41985;DHT22;28319;48.116;10.818;2023-11-21T04:58:28;6.40;99.90
41985;DHT22;28319;48.116;10.818;2023-11-21T05:03:31;6.30;99.90
41985;DHT22;28319;48.116;10.818;2023-11-21T05:08:33;6.30;99.90
41985;DHT22;28319;48.116;10.818;2023-11-21T05:13:36;6.20;99.90
41985;DHT22;28319;48.116;10.818;2023-11-21T05:18:39;6.20;99.90
41985;DHT22;28319;48.116;10.818;2023-11-21T05:23:41;6.20;99.90
41985;DHT22;28319;48.116;10.818;2023-11-21T05:28:45;6.20;99.90
41985;DHT22;28319;48.116;10.818;2023-11-21T05:33:48;6.20;99.90
41985;DHT22;28319;48.116;10.818;2023-11-21T05:38:50;6.10;99.90
41985;DHT22;28319;48.116;10.818;2023-11-21T05:43:53;6.10;99.90
41985;DHT22;28319;48.116;10.818;2023-11-21T05:48:55;6.10;99.90
41985;DHT22;28319;48.116;10.818;2023-11-21T05:53:57;6.10;99.90
41985;DHT22;28319;48.116;10.818;2023-11-21T05:59:01;6.00;99.90
41985;DHT22;28319;48.116;10.818;2023-11-21T06:04:04;6.00;99.90
41985;DHT22;28319;48.116;10.818;2023-11-21T06:09:08;6.00;99.90
41985;DHT22;28319;48.116;10.818;2023-11-21T06:14:13;6.10;99.90
41985;DHT22;28319;48.116;10.818;2023-11-21T06:19:18;6.00;99.90
41985;DHT22;28319;48.116;10.818;2023-11-21T06:24:20;6.00;99.90
41985;DHT22;28319;48.116;10.818;2023-11-21T06:29:23;6.00;99.90
41985;DHT22;28319;48.116;10.818;2023-11-21T06:34:26;6.00;99.90
41985;DHT22;28319;48.116;10.818;2023-11-21T06:39:28;6.00;99.90
41985;DHT22;28319;48.116;10.818;2023-11-21T06:44:32;5.90;99.90
41985;DHT22;28319;48.116;10.818;2023-11-21T06:49:34;6.00;99.90
41985;DHT22;28319;48.116;10.818;2023-11-21T06:54:37;6.00;99.90
41985;DHT22;28319;48.116;10.818;2023-11-21T06:59:40;6.00;99.90
41985;DHT22;28319;48.116;10.818;2023-11-21T07:04:42;5.90;99.90
41985;DHT22;28319;48.116;10.818;2023-11-21T07:09:44;5.90;99.90
41985;DHT22;28319;48.116;10.818;2023-11-21T07:14:48;5.90;99.90
41985;DHT22;28319;48.116;10.818;2023-11-21T07:19:50;5.90;99.90
41985;DHT22;28319;48.116;10.818;2023-11-21T07:24:52;6.00;99.90
41985;DHT22;28319;48.116;10.818;2023-11-21T07:29:56;6.00;99.90
41985;DHT22;28319;48.116;10.818;2023-11-21T07:34:58;6.00;99.90
41985;DHT22;28319;48.116;10.818;2023-11-21T07:40:01;6.10;99.90
41985;DHT22;28319;48.116;10.818;2023-11-21T07:45:10;6.10;99.90
41985;DHT22;28319;48.116;10.818;2023-11-21T07:50:13;6.20;99.90
41985;DHT22;28319;48.116;10.818;2023-11-21T07:55:15;6.20;99.90
41985;DHT22;28319;48.116;10.818;2023-11-21T08:00:20;6.30;99.90
41985;DHT22;28319;48.116;10.818;2023-11-21T08:05:22;6.30;99.90
41985;DHT22;28319;48.116;10.818;2023-11-21T08:10:25;6.30;99.90
41985;DHT22;28319;48.116;10.818;2023-11-21T08:15:28;6.40;99.90
41985;DHT22;28319;48.116;10.818;2023-11-21T08:20:32;6.50;99.90
41985;DHT22;28319;48.116;10.818;2023-11-21T08:25:37;6.50;99.90
41985;DHT22;28319;48.116;10.818;2023-11-21T08:30:40;6.60;99.90
41985;DHT22;28319;48.116;10.818;2023-11-21T08:35:43;6.60;99.90
41985;DHT22;28319;48.116;10.818;2023-11-21T08:40:45;6.70;99.90
41985;DHT22;28319;48.116;10.818;2023-11-21T08:45:48;6.70;99.90
41985;DHT22;28319;48.116;10.818;2023-11-21T08:50:50;6.70;99.90
41985;DHT22;28319;48.116;10.818;2023-11-21T08:55:52;6.80;99.90
41985;DHT22;28319;48.116;10.818;2023-11-21T09:00:56;6.80;99.90
41985;DHT22;28319;48.116;10.818;2023-11-21T09:05:58;6.90;99.90
41985;DHT22;28319;48.116;10.818;2023-11-21T09:11:00;7.00;99.90
41985;DHT22;28319;48.116;10.818;2023-11-21T09:16:05;7.00;99.90
41985;DHT22;28319;48.116;10.818;2023-11-21T09:21:07;7.10;99.90
41985;DHT22;28319;48.116;10.818;2023-11-21T09:26:09;7.20;99.90
41985;DHT22;28319;48.116;10.818;2023-11-21T09:31:13;7.20;99.90
41985;DHT22;28319;48.116;10.818;2023-11-21T09:36:16;7.30;99.90
41985;DHT22;28319;48.116;10.818;2023-11-21T09:41:22;7.30;99.90
41985;DHT22;28319;48.116;10.818;2023-11-21T09:46:29;7.40;99.90
41985;DHT22;28319;48.116;10.818;2023-11-21T09:51:32;7.40;99.90
41985;DHT22;28319;48.116;10.818;2023-11-21T09:56:39;7.50;99.90
41985;DHT22;28319;48.116;10.818;2023-11-21T10:01:43;7.60;99.90
41985;DHT22;28319;48.116;10.818;2023-11-21T10:06:45;7.60;99.90
41985;DHT22;28319;48.116;10.818;2023-11-21T10:11:49;7.60;99.90
41985;DHT22;28319;48.116;10.818;2023-11-21T10:16:54;7.80;99.90
41985;DHT22;28319;48.116;10.818;2023-11-21T10:21:57;7.70;99.90
41985;DHT22;28319;48.116;10.818;2023-11-21T10:27:02;7.90;99.90
41985;DHT22;28319;48.116;10.818;2023-11-21T10:32:06;7.90;99.90
41985;DHT22;28319;48.116;10.818;2023-11-21T10:37:11;7.90;99.90
41985;DHT22;28319;48.116;10.818;2023-11-21T10:42:14;8.00;99.90
41985;DHT22;28319;48.116;10.818;2023-11-21T10:47:17;8.00;99.90
41985;DHT22;28319;48.116;10.818;2023-11-21T10:52:20;8.10;99.90
41985;DHT22;28319;48.116;10.818;2023-11-21T10:57:23;8.30;99.90
41985;DHT22;28319;48.116;10.818;2023-11-21T11:02:28;8.30;99.90
41985;DHT22;28319;48.116;10.818;2023-11-21T11:07:34;8.30;99.90
41985;DHT22;28319;48.116;10.818;2023-11-21T11:12:37;8.40;99.90
41985;DHT22;28319;48.116;10.818;2023-11-21T11:17:40;8.50;99.90
41985;DHT22;28319;48.116;10.818;2023-11-21T11:22:50;8.50;99.90
41985;DHT22;28319;48.116;10.818;2023-11-21T11:28:04;8.60;99.90
41985;DHT22;28319;48.116;10.818;2023-11-21T11:33:19;8.70;99.90
41985;DHT22;28319;48.116;10.818;2023-11-21T11:38:31;8.80;99.90
41985;DHT22;28319;48.116;10.818;2023-11-21T11:43:33;8.70;99.90
41985;DHT22;28319;48.116;10.818;2023-11-21T11:48:46;8.80;99.90
41985;DHT22;28319;48.116;10.818;2023-11-21T11:53:48;8.80;99.90
41985;DHT22;28319;48.116;10.818;2023-11-21T11:58:51;8.70;99.90
41985;DHT22;28319;48.116;10.818;2023-11-21T12:09:37;8.80;99.90
41985;DHT22;28319;48.116;10.818;2023-11-21T12:14:39;8.80;99.90
41985;DHT22;28319;48.116;10.818;2023-11-21T12:19:41;8.80;99.90
41985;DHT22;28319;48.116;10.818;2023-11-21T12:24:45;8.90;99.90
41985;DHT22;28319;48.116;10.818;2023-11-21T12:29:47;8.80;99.90
41985;DHT22;28319;48.116;10.818;2023-11-21T12:34:49;8.80;99.90
41985;DHT22;28319;48.116;10.818;2023-11-21T12:39:53;8.90;99.90
41985;DHT22;28319;48.116;10.818;2023-11-21T12:45:18;8.90;99.90
41985;DHT22;28319;48.116;10.818;2023-11-21T12:50:21;9.00;99.90
41985;DHT22;28319;48.116;10.818;2023-11-21T12:55:25;9.10;99.90
41985;DHT22;28319;48.116;10.818;2023-11-21T13:00:31;9.10;99.90
41985;DHT22;28319;48.116;10.818;2023-11-21T13:05:35;9.20;99.90
41985;DHT22;28319;48.116;10.818;2023-11-21T13:10:43;9.30;99.90
41985;DHT22;28319;48.116;10.818;2023-11-21T13:15:48;9.90;99.90
41985;DHT22;28319;48.116;10.818;2023-11-21T13:20:50;10.20;99.90
41985;DHT22;28319;48.116;10.818;2023-11-21T13:25:55;10.50;99.90
41985;DHT22;28319;48.116;10.818;2023-11-21T13:30:58;10.10;99.90
41985;DHT22;28319;48.116;10.818;2023-11-21T13:36:05;10.20;99.90
41985;DHT22;28319;48.116;10.818;2023-11-21T13:41:11;10.10;99.90
41985;DHT22;28319;48.116;10.818;2023-11-21T13:46:14;10.20;99.90
41985;DHT22;28319;48.116;10.818;2023-11-21T13:51:22;10.10;99.90
41985;DHT22;28319;48.116;10.818;2023-11-21T13:56:33;9.90;99.90
41985;DHT22;28319;48.116;10.818;2023-11-21T14:01:35;10.20;99.90
41985;DHT22;28319;48.116;10.818;2023-11-21T14:06:54;10.10;99.90
41985;DHT22;28319;48.116;10.818;2023-11-21T14:11:58;9.50;99.90
41985;DHT22;28319;48.116;10.818;2023-11-21T14:17:03;9.10;99.90
41985;DHT22;28319;48.116;10.818;2023-11-21T14:22:07;8.50;99.90
41985;DHT22;28319;48.116;10.818;2023-11-21T14:27:11;8.30;99.90
41985;DHT22;28319;48.116;10.818;2023-11-21T14:32:13;8.30;99.90
41985;DHT22;28319;48.116;10.818;2023-11-21T14:37:16;8.70;99.90
41985;DHT22;28319;48.116;10.818;2023-11-21T14:42:20;8.90;99.90
41985;DHT22;28319;48.116;10.818;2023-11-21T14:47:26;8.60;99.90
41985;DHT22;28319;48.116;10.818;2023-11-21T14:52:28;8.40;99.90
41985;DHT22;28319;48.116;10.818;2023-11-21T14:57:38;8.40;99.90
41985;DHT22;28319;48.116;10.818;2023-11-21T15:02:40;8.50;99.90
41985;DHT22;28319;48.116;10.818;2023-11-21T15:07:50;8.60;99.90
41985;DHT22;28319;48.116;10.818;2023-11-21T15:12:57;8.60;99.90
41985;DHT22;28319;48.116;10.818;2023-11-21T15:17:59;8.50;99.90
41985;DHT22;28319;48.116;10.818;2023-11-21T15:23:02;8.30;99.90
41985;DHT22;28319;48.116;10.818;2023-11-21T15:28:08;8.20;99.90
41985;DHT22;28319;48.116;10.818;2023-11-21T15:33:10;8.40;99.90
41985;DHT22;28319;48.116;10.818;2023-11-21T15:38:12;8.50;99.90
41985;DHT22;28319;48.116;10.818;2023-11-21T15:43:18;8.50;99.90
41985;DHT22;28319;48.116;10.818;2023-11-21T15:48:19;8.70;99.90
41985;DHT22;28319;48.116;10.818;2023-11-21T15:53:21;8.80;99.90
41985;DHT22;28319;48.116;10.818;2023-11-21T15:58:25;8.70;99.90
41985;DHT22;28319;48.116;10.818;2023-11-21T16:03:27;8.30;99.90
41985;DHT22;28319;48.116;10.818;2023-11-21T16:08:31;8.00;99.90
41985;DHT22;28319;48.116;10.818;2023-11-21T16:13:34;8.20;99.90
41985;DHT22;28319;48.116;10.818;2023-11-21T16:18:36;8.10;99.90
41985;DHT22;28319;48.116;10.818;2023-11-21T16:23:38;7.80;99.90
41985;DHT22;28319;48.116;10.818;2023-11-21T16:28:42;7.80;99.90
41985;DHT22;28319;48.116;10.818;2023-11-21T16:33:44;8.10;99.90
41985;DHT22;28319;48.116;10.818;2023-11-21T16:38:46;8.30;99.90
41985;DHT22;28319;48.116;10.818;2023-11-21T16:43:49;8.30;99.90
41985;DHT22;28319;48.116;10.818;2023-11-21T16:48:51;8.40;99.90
41985;DHT22;28319;48.116;10.818;2023-11-21T16:53:53;8.50;99.90
41985;DHT22;28319;48.116;10.818;2023-11-21T16:58:58;8.40;99.90
41985;DHT22;28319;48.116;10.818;2023-11-21T17:04:00;8.40;99.90
41985;DHT22;28319;48.116;10.818;2023-11-21T17:09:03;8.40;99.90
41985;DHT22;28319;48.116;10.818;2023-11-21T17:14:11;8.30;99.90
41985;DHT22;28319;48.116;10.818;2023-11-21T17:19:13;8.10;99.90
41985;DHT22;28319;48.116;10.818;2023-11-21T17:24:15;8.00;99.90
41985;DHT22;28319;48.116;10.818;2023-11-21T17:29:19;8.00;99.90
41985;DHT22;28319;48.116;10.818;2023-11-21T17:34:21;8.20;99.90
41985;DHT22;28319;48.116;10.818;2023-11-21T17:39:23;8.20;99.90
41985;DHT22;28319;48.116;10.818;2023-11-21T17:44:26;8.40;99.90
41985;DHT22;28319;48.116;10.818;2023-11-21T17:49:29;8.40;99.90
41985;DHT22;28319;48.116;10.818;2023-11-21T17:54:31;8.30;99.90
41985;DHT22;28319;48.116;10.818;2023-11-21T17:59:35;8.00;99.90
41985;DHT22;28319;48.116;10.818;2023-11-21T18:04:38;7.90;99.90
41985;DHT22;28319;48.116;10.818;2023-11-21T18:09:40;7.70;99.90
41985;DHT22;28319;48.116;10.818;2023-11-21T18:14:43;7.70;99.90
41985;DHT22;28319;48.116;10.818;2023-11-21T18:19:49;7.80;99.90
41985;DHT22;28319;48.116;10.818;2023-11-21T18:24:55;7.90;99.90
41985;DHT22;28319;48.116;10.818;2023-11-21T18:30:00;8.00;99.90
41985;DHT22;28319;48.116;10.818;2023-11-21T18:35:03;8.00;99.90
41985;DHT22;28319;48.116;10.818;2023-11-21T18:40:07;8.10;99.90
41985;DHT22;28319;48.116;10.818;2023-11-21T18:45:11;7.90;99.90
41985;DHT22;28319;48.116;10.818;2023-11-21T18:50:14;7.90;99.90
41985;DHT22;28319;48.116;10.818;2023-11-21T18:55:19;7.90;99.90
41985;DHT22;28319;48.116;10.818;2023-11-21T19:00:22;8.10;99.90
41985;DHT22;28319;48.116;10.818;2023-11-21T19:05:24;8.00;99.90
41985;DHT22;28319;48.116;10.818;2023-11-21T19:10:27;8.00;99.90
41985;DHT22;28319;48.116;10.818;2023-11-21T19:15:31;8.00;99.90
41985;DHT22;28319;48.116;10.818;2023-11-21T19:20:35;7.90;99.90
41985;DHT22;28319;48.116;10.818;2023-11-21T19:25:37;7.80;99.90
41985;DHT22;28319;48.116;10.818;2023-11-21T19:30:40;7.90;99.90
41985;DHT22;28319;48.116;10.818;2023-11-21T19:35:42;7.80;99.90
41985;DHT22;28319;48.116;10.818;2023-11-21T19:40:47;7.70;99.90
41985;DHT22;28319;48.116;10.818;2023-11-21T19:45:51;7.60;99.90
41985;DHT22;28319;48.116;10.818;2023-11-21T19:50:53;7.60;99.90
41985;DHT22;28319;48.116;10.818;2023-11-21T19:55:55;7.50;99.90
41985;DHT22;28319;48.116;10.818;2023-11-21T20:00:59;7.40;99.90
41985;DHT22;28319;48.116;10.818;2023-11-21T20:06:01;7.40;99.90
41985;DHT22;28319;48.116;10.818;2023-11-21T20:11:05;7.50;99.90
41985;DHT22;28319;48.116;10.818;2023-11-21T20:16:09;7.40;99.90
41985;DHT22;28319;48.116;10.818;2023-11-21T20:21:12;7.30;99.90
41985;DHT22;28319;48.116;10.818;2023-11-21T20:26:23;7.20;99.90
41985;DHT22;28319;48.116;10.818;2023-11-21T20:31:27;7.10;99.90
41985;DHT22;28319;48.116;10.818;2023-11-21T20:36:29;7.00;99.90
41985;DHT22;28319;48.116;10.818;2023-11-21T20:41:31;7.60;99.90
41985;DHT22;28319;48.116;10.818;2023-11-21T20:46:39;6.90;99.90
41985;DHT22;28319;48.116;10.818;2023-11-21T20:51:41;7.00;99.90
41985;DHT22;28319;48.116;10.818;2023-11-21T20:56:46;7.00;99.90
41985;DHT22;28319;48.116;10.818;2023-11-21T21:01:51;7.00;99.90
41985;DHT22;28319;48.116;10.818;2023-11-21T21:06:52;7.00;99.90
41985;DHT22;28319;48.116;10.818;2023-11-21T21:11:54;7.10;99.90
41985;DHT22;28319;48.116;10.818;2023-11-21T21:16:59;7.00;99.90
41985;DHT22;28319;48.116;10.818;2023-11-21T21:22:02;7.00;99.90
41985;DHT22;28319;48.116;10.818;2023-11-21T21:27:04;7.00;99.90
41985;DHT22;28319;48.116;10.818;2023-11-21T21:32:08;7.00;99.90
41985;DHT22;28319;48.116;10.818;2023-11-21T21:37:10;7.00;99.90
41985;DHT22;28319;48.116;10.818;2023-11-21T21:42:13;7.10;99.90
41985;DHT22;28319;48.116;10.818;2023-11-21T21:47:16;7.30;99.90
41985;DHT22;28319;48.116;10.818;2023-11-21T21:52:18;7.30;99.90
41985;DHT22;28319;48.116;10.818;2023-11-21T21:57:20;7.30;99.90
41985;DHT22;28319;48.116;10.818;2023-11-21T22:02:23;7.30;99.90
41985;DHT22;28319;48.116;10.818;2023-11-21T22:07:25;7.10;99.90
41985;DHT22;28319;48.116;10.818;2023-11-21T22:12:27;7.00;99.90
41985;DHT22;28319;48.116;10.818;2023-11-21T22:17:31;6.90;99.90
41985;DHT22;28319;48.116;10.818;2023-11-21T22:22:33;7.00;99.90
41985;DHT22;28319;48.116;10.818;2023-11-21T22:27:35;7.10;99.90
41985;DHT22;28319;48.116;10.818;2023-11-21T22:32:38;7.30;99.90
41985;DHT22;28319;48.116;10.818;2023-11-21T22:37:40;7.20;99.90
41985;DHT22;28319;48.116;10.818;2023-11-21T22:42:44;7.10;99.90
41985;DHT22;28319;48.116;10.818;2023-11-21T22:47:48;7.10;99.90
41985;DHT22;28319;48.116;10.818;2023-11-21T22:52:50;6.90;99.90
41985;DHT22;28319;48.116;10.818;2023-11-21T22:57:53;6.70;99.90
41985;DHT22;28319;48.116;10.818;2023-11-21T23:02:57;6.70;99.90
41985;DHT22;28319;48.116;10.818;2023-11-21T23:08:01;6.60;99.90
41985;DHT22;28319;48.116;10.818;2023-11-21T23:13:03;6.70;99.90
41985;DHT22;28319;48.116;10.818;2023-11-21T23:18:06;6.90;99.90
41985;DHT22;28319;48.116;10.818;2023-11-21T23:23:09;6.90;99.90
41985;DHT22;28319;48.116;10.818;2023-11-21T23:28:11;6.90;99.90
41985;DHT22;28319;48.116;10.818;2023-11-21T23:33:15;7.00;99.90
41985;DHT22;28319;48.116;10.818;2023-11-21T23:38:17;6.80;99.90
41985;DHT22;28319;48.116;10.818;2023-11-21T23:43:19;6.70;99.90
41985;DHT22;28319;48.116;10.818;2023-11-21T23:48:25;6.70;99.90
41985;DHT22;28319;48.116;10.818;2023-11-21T23:53:28;6.60;99.90
41985;DHT22;28319;48.116;10.818;2023-11-21T23:58:30;6.60;99.90
